In Rescue
 
Open Full Screen Window  High Contrast Mode
Wind Gusting 00 knots
05
September 21, 2020 11:58 PM EDT
Weather Information
Wind Direction
  190 °
Wind Speed
  05 kt (6 mph)
Wind Gust
  00 kt (0 mph)
Altimeter
30.23 in
Visibility
10 SM
Temperature
16° C
61° F
Dewpoint
06° C
43° F
Humidity
52%
Sky Condition
Clear
VFR

METAR KACB 220358Z AUTO 19005KT 10SM CLR 16/06 A3023 RMK AO2 T01600056

FAA Disclaimer: The data displayed is for advisory purposes only and is not to be used for flight planning or operations.